sensor_id;sensor_type;location;lat;lon;timestamp;P1;durP1;ratioP1;P2;durP2;ratioP2
17917;SDS011;9084;50.956;3.106;2022-08-14T00:00:51;5.78;;;2.88;;
17917;SDS011;9084;50.956;3.106;2022-08-14T00:03:17;5.18;;;2.70;;
17917;SDS011;9084;50.956;3.106;2022-08-14T00:05:45;6.55;;;2.88;;
17917;SDS011;9084;50.956;3.106;2022-08-14T00:08:15;2.78;;;2.50;;
17917;SDS011;9084;50.956;3.106;2022-08-14T00:10:42;3.05;;;2.67;;
17917;SDS011;9084;50.956;3.106;2022-08-14T00:13:09;2.72;;;2.40;;
17917;SDS011;9084;50.956;3.106;2022-08-14T00:15:39;2.50;;;2.30;;
17917;SDS011;9084;50.956;3.106;2022-08-14T00:18:07;3.40;;;2.33;;
17917;SDS011;9084;50.956;3.106;2022-08-14T00:20:36;4.22;;;2.45;;
17917;SDS011;9084;50.956;3.106;2022-08-14T00:23:04;4.60;;;2.80;;
17917;SDS011;9084;50.956;3.106;2022-08-14T00:25:32;2.90;;;2.63;;
17917;SDS011;9084;50.956;3.106;2022-08-14T00:27:58;2.97;;;2.47;;
17917;SDS011;9084;50.956;3.106;2022-08-14T00:30:24;3.03;;;2.72;;
17917;SDS011;9084;50.956;3.106;2022-08-14T00:32:50;4.05;;;2.67;;
17917;SDS011;9084;50.956;3.106;2022-08-14T00:35:15;2.78;;;2.58;;
17917;SDS011;9084;50.956;3.106;2022-08-14T00:37:43;3.33;;;3.03;;
17917;SDS011;9084;50.956;3.106;2022-08-14T00:40:11;3.47;;;2.88;;
17917;SDS011;9084;50.956;3.106;2022-08-14T00:42:39;4.97;;;3.42;;
17917;SDS011;9084;50.956;3.106;2022-08-14T00:45:06;3.65;;;3.35;;
17917;SDS011;9084;50.956;3.106;2022-08-14T00:47:35;3.70;;;3.38;;
17917;SDS011;9084;50.956;3.106;2022-08-14T00:50:03;4.03;;;3.25;;
17917;SDS011;9084;50.956;3.106;2022-08-14T00:52:31;8.55;;;3.47;;
17917;SDS011;9084;50.956;3.106;2022-08-14T00:54:58;4.10;;;3.80;;
17917;SDS011;9084;50.956;3.106;2022-08-14T00:57:25;4.07;;;3.67;;
17917;SDS011;9084;50.956;3.106;2022-08-14T00:59:58;4.15;;;3.65;;
17917;SDS011;9084;50.956;3.106;2022-08-14T01:02:25;6.95;;;3.42;;
17917;SDS011;9084;50.956;3.106;2022-08-14T01:04:53;4.03;;;3.63;;
17917;SDS011;9084;50.956;3.106;2022-08-14T01:07:22;5.43;;;4.25;;
17917;SDS011;9084;50.956;3.106;2022-08-14T01:09:51;4.20;;;3.33;;
17917;SDS011;9084;50.956;3.106;2022-08-14T01:12:20;6.00;;;3.80;;
17917;SDS011;9084;50.956;3.106;2022-08-14T01:14:47;5.57;;;3.90;;
17917;SDS011;9084;50.956;3.106;2022-08-14T01:17:17;4.97;;;3.47;;
17917;SDS011;9084;50.956;3.106;2022-08-14T01:19:42;4.35;;;3.95;;
17917;SDS011;9084;50.956;3.106;2022-08-14T01:22:27;8.82;;;4.00;;
17917;SDS011;9084;50.956;3.106;2022-08-14T01:24:53;4.03;;;3.72;;
17917;SDS011;9084;50.956;3.106;2022-08-14T01:27:20;5.57;;;4.03;;
17917;SDS011;9084;50.956;3.106;2022-08-14T01:29:52;4.45;;;4.13;;
17917;SDS011;9084;50.956;3.106;2022-08-14T01:32:22;6.38;;;4.18;;
17917;SDS011;9084;50.956;3.106;2022-08-14T01:34:54;5.65;;;4.50;;
17917;SDS011;9084;50.956;3.106;2022-08-14T01:37:23;5.78;;;4.18;;
17917;SDS011;9084;50.956;3.106;2022-08-14T01:39:50;5.82;;;5.10;;
17917;SDS011;9084;50.956;3.106;2022-08-14T01:42:19;8.05;;;5.07;;
17917;SDS011;9084;50.956;3.106;2022-08-14T01:44:45;6.50;;;4.60;;
17917;SDS011;9084;50.956;3.106;2022-08-14T01:47:15;5.93;;;4.88;;
17917;SDS011;9084;50.956;3.106;2022-08-14T01:49:42;6.07;;;4.80;;
17917;SDS011;9084;50.956;3.106;2022-08-14T01:52:11;6.28;;;5.78;;
17917;SDS011;9084;50.956;3.106;2022-08-14T01:54:37;6.43;;;5.40;;
17917;SDS011;9084;50.956;3.106;2022-08-14T01:57:06;6.13;;;5.53;;
17917;SDS011;9084;50.956;3.106;2022-08-14T01:59:35;7.60;;;5.63;;
17917;SDS011;9084;50.956;3.106;2022-08-14T02:02:03;7.00;;;5.78;;
17917;SDS011;9084;50.956;3.106;2022-08-14T02:04:36;8.73;;;5.85;;
17917;SDS011;9084;50.956;3.106;2022-08-14T02:07:03;7.10;;;6.43;;
17917;SDS011;9084;50.956;3.106;2022-08-14T02:09:30;6.78;;;5.45;;
17917;SDS011;9084;50.956;3.106;2022-08-14T02:11:59;6.68;;;6.18;;
17917;SDS011;9084;50.956;3.106;2022-08-14T02:14:27;7.47;;;6.07;;
17917;SDS011;9084;50.956;3.106;2022-08-14T02:16:56;8.60;;;5.75;;
17917;SDS011;9084;50.956;3.106;2022-08-14T02:19:24;6.90;;;6.20;;
17917;SDS011;9084;50.956;3.106;2022-08-14T02:21:52;7.32;;;6.72;;
17917;SDS011;9084;50.956;3.106;2022-08-14T02:24:22;6.70;;;6.10;;
17917;SDS011;9084;50.956;3.106;2022-08-14T02:26:50;7.88;;;6.60;;
17917;SDS011;9084;50.956;3.106;2022-08-14T02:29:19;7.43;;;6.80;;
17917;SDS011;9084;50.956;3.106;2022-08-14T02:31:49;8.40;;;7.50;;
17917;SDS011;9084;50.956;3.106;2022-08-14T02:34:20;7.22;;;6.45;;
17917;SDS011;9084;50.956;3.106;2022-08-14T02:36:54;7.85;;;7.00;;
17917;SDS011;9084;50.956;3.106;2022-08-14T02:39:23;8.80;;;7.80;;
17917;SDS011;9084;50.956;3.106;2022-08-14T02:41:52;8.75;;;7.78;;
17917;SDS011;9084;50.956;3.106;2022-08-14T02:44:18;9.63;;;7.25;;
17917;SDS011;9084;50.956;3.106;2022-08-14T02:46:45;12.18;;;7.35;;
17917;SDS011;9084;50.956;3.106;2022-08-14T02:49:12;8.32;;;7.40;;
17917;SDS011;9084;50.956;3.106;2022-08-14T02:51:38;8.43;;;7.63;;
17917;SDS011;9084;50.956;3.106;2022-08-14T02:54:07;9.00;;;8.00;;
17917;SDS011;9084;50.956;3.106;2022-08-14T02:56:35;8.63;;;7.82;;
17917;SDS011;9084;50.956;3.106;2022-08-14T02:59:04;8.82;;;8.10;;
17917;SDS011;9084;50.956;3.106;2022-08-14T03:01:32;9.10;;;8.40;;
17917;SDS011;9084;50.956;3.106;2022-08-14T03:04:00;9.13;;;8.32;;
17917;SDS011;9084;50.956;3.106;2022-08-14T03:06:28;9.63;;;8.40;;
17917;SDS011;9084;50.956;3.106;2022-08-14T03:08:54;8.88;;;7.80;;
17917;SDS011;9084;50.956;3.106;2022-08-14T03:11:22;8.90;;;8.05;;
17917;SDS011;9084;50.956;3.106;2022-08-14T03:13:49;8.93;;;7.90;;
17917;SDS011;9084;50.956;3.106;2022-08-14T03:16:19;9.27;;;8.13;;
17917;SDS011;9084;50.956;3.106;2022-08-14T03:18:48;9.25;;;8.55;;
17917;SDS011;9084;50.956;3.106;2022-08-14T03:21:24;9.07;;;8.27;;
17917;SDS011;9084;50.956;3.106;2022-08-14T03:23:52;9.48;;;8.65;;
17917;SDS011;9084;50.956;3.106;2022-08-14T03:26:40;9.13;;;8.18;;
17917;SDS011;9084;50.956;3.106;2022-08-14T03:29:09;9.40;;;8.60;;
17917;SDS011;9084;50.956;3.106;2022-08-14T03:31:37;9.98;;;8.75;;
17917;SDS011;9084;50.956;3.106;2022-08-14T03:34:06;9.60;;;8.73;;
17917;SDS011;9084;50.956;3.106;2022-08-14T03:36:37;10.45;;;9.15;;
17917;SDS011;9084;50.956;3.106;2022-08-14T03:39:05;9.90;;;8.77;;
17917;SDS011;9084;50.956;3.106;2022-08-14T03:41:31;9.85;;;9.10;;
17917;SDS011;9084;50.956;3.106;2022-08-14T03:43:59;9.75;;;8.73;;
17917;SDS011;9084;50.956;3.106;2022-08-14T03:46:35;9.48;;;8.57;;
17917;SDS011;9084;50.956;3.106;2022-08-14T03:49:03;9.35;;;8.65;;
17917;SDS011;9084;50.956;3.106;2022-08-14T03:51:30;9.32;;;8.63;;
17917;SDS011;9084;50.956;3.106;2022-08-14T03:53:58;10.20;;;9.20;;
17917;SDS011;9084;50.956;3.106;2022-08-14T03:56:25;12.15;;;8.88;;
17917;SDS011;9084;50.956;3.106;2022-08-14T03:58:55;9.45;;;8.50;;
17917;SDS011;9084;50.956;3.106;2022-08-14T04:01:23;13.93;;;9.10;;
17917;SDS011;9084;50.956;3.106;2022-08-14T04:03:51;9.15;;;8.43;;
17917;SDS011;9084;50.956;3.106;2022-08-14T04:06:22;10.75;;;8.82;;
17917;SDS011;9084;50.956;3.106;2022-08-14T04:08:48;9.90;;;9.07;;
17917;SDS011;9084;50.956;3.106;2022-08-14T04:11:15;11.70;;;9.13;;
17917;SDS011;9084;50.956;3.106;2022-08-14T04:13:44;10.07;;;9.18;;
17917;SDS011;9084;50.956;3.106;2022-08-14T04:16:12;10.18;;;9.20;;
17917;SDS011;9084;50.956;3.106;2022-08-14T04:18:45;9.95;;;8.60;;
17917;SDS011;9084;50.956;3.106;2022-08-14T04:21:13;9.27;;;8.57;;
17917;SDS011;9084;50.956;3.106;2022-08-14T04:23:40;9.45;;;8.65;;
17917;SDS011;9084;50.956;3.106;2022-08-14T04:26:07;9.98;;;9.10;;
17917;SDS011;9084;50.956;3.106;2022-08-14T04:28:35;11.35;;;9.45;;
17917;SDS011;9084;50.956;3.106;2022-08-14T04:31:02;10.00;;;9.30;;
17917;SDS011;9084;50.956;3.106;2022-08-14T04:33:29;10.43;;;9.27;;
17917;SDS011;9084;50.956;3.106;2022-08-14T04:35:56;10.50;;;9.70;;
17917;SDS011;9084;50.956;3.106;2022-08-14T04:38:23;9.75;;;8.52;;
17917;SDS011;9084;50.956;3.106;2022-08-14T04:41:07;10.05;;;9.23;;
17917;SDS011;9084;50.956;3.106;2022-08-14T04:43:52;9.85;;;9.07;;
17917;SDS011;9084;50.956;3.106;2022-08-14T04:46:21;11.75;;;9.40;;
17917;SDS011;9084;50.956;3.106;2022-08-14T04:48:48;12.48;;;9.60;;
17917;SDS011;9084;50.956;3.106;2022-08-14T04:51:16;9.98;;;8.93;;
17917;SDS011;9084;50.956;3.106;2022-08-14T04:53:45;10.07;;;9.23;;
17917;SDS011;9084;50.956;3.106;2022-08-14T04:56:16;10.18;;;9.27;;
17917;SDS011;9084;50.956;3.106;2022-08-14T04:58:46;9.95;;;9.07;;
17917;SDS011;9084;50.956;3.106;2022-08-14T05:01:14;12.65;;;9.55;;
17917;SDS011;9084;50.956;3.106;2022-08-14T05:03:40;10.68;;;9.70;;
17917;SDS011;9084;50.956;3.106;2022-08-14T05:06:07;10.07;;;9.07;;
17917;SDS011;9084;50.956;3.106;2022-08-14T05:08:36;9.13;;;8.40;;
17917;SDS011;9084;50.956;3.106;2022-08-14T05:11:07;9.77;;;8.88;;
17917;SDS011;9084;50.956;3.106;2022-08-14T05:13:34;10.90;;;9.88;;
17917;SDS011;9084;50.956;3.106;2022-08-14T05:16:01;10.55;;;9.38;;
17917;SDS011;9084;50.956;3.106;2022-08-14T05:18:29;10.15;;;9.23;;
17917;SDS011;9084;50.956;3.106;2022-08-14T05:20:59;9.80;;;8.82;;
17917;SDS011;9084;50.956;3.106;2022-08-14T05:23:28;10.48;;;9.05;;
17917;SDS011;9084;50.956;3.106;2022-08-14T05:25:57;9.32;;;8.40;;
17917;SDS011;9084;50.956;3.106;2022-08-14T05:28:28;10.98;;;9.75;;
17917;SDS011;9084;50.956;3.106;2022-08-14T05:30:56;10.23;;;9.23;;
17917;SDS011;9084;50.956;3.106;2022-08-14T05:33:27;9.60;;;8.75;;
17917;SDS011;9084;50.956;3.106;2022-08-14T05:35:57;9.65;;;8.75;;
17917;SDS011;9084;50.956;3.106;2022-08-14T05:38:41;10.02;;;8.82;;
17917;SDS011;9084;50.956;3.106;2022-08-14T05:41:12;9.32;;;8.48;;
17917;SDS011;9084;50.956;3.106;2022-08-14T05:43:40;10.15;;;9.15;;
17917;SDS011;9084;50.956;3.106;2022-08-14T05:46:08;13.70;;;9.50;;
17917;SDS011;9084;50.956;3.106;2022-08-14T05:48:38;10.77;;;9.75;;
17917;SDS011;9084;50.956;3.106;2022-08-14T05:51:04;16.63;;;9.77;;
17917;SDS011;9084;50.956;3.106;2022-08-14T05:53:30;11.20;;;8.27;;
17917;SDS011;9084;50.956;3.106;2022-08-14T05:55:56;8.82;;;8.02;;
17917;SDS011;9084;50.956;3.106;2022-08-14T05:58:23;9.40;;;6.85;;
17917;SDS011;9084;50.956;3.106;2022-08-14T06:00:52;7.63;;;6.85;;
17917;SDS011;9084;50.956;3.106;2022-08-14T06:03:20;6.80;;;6.13;;
17917;SDS011;9084;50.956;3.106;2022-08-14T06:05:50;6.82;;;5.78;;
17917;SDS011;9084;50.956;3.106;2022-08-14T06:08:22;5.57;;;5.03;;
17917;SDS011;9084;50.956;3.106;2022-08-14T06:10:57;6.07;;;5.03;;
17917;SDS011;9084;50.956;3.106;2022-08-14T06:13:31;5.35;;;4.78;;
17917;SDS011;9084;50.956;3.106;2022-08-14T06:16:01;6.25;;;4.20;;
17917;SDS011;9084;50.956;3.106;2022-08-14T06:18:32;4.35;;;3.97;;
17917;SDS011;9084;50.956;3.106;2022-08-14T06:20:59;4.07;;;3.67;;
17917;SDS011;9084;50.956;3.106;2022-08-14T06:23:28;4.50;;;4.03;;
17917;SDS011;9084;50.956;3.106;2022-08-14T06:25:53;3.90;;;3.60;;
17917;SDS011;9084;50.956;3.106;2022-08-14T06:28:20;4.93;;;3.92;;
17917;SDS011;9084;50.956;3.106;2022-08-14T06:30:48;4.00;;;3.65;;
17917;SDS011;9084;50.956;3.106;2022-08-14T06:33:15;4.50;;;3.58;;
17917;SDS011;9084;50.956;3.106;2022-08-14T06:35:45;4.00;;;3.60;;
17917;SDS011;9084;50.956;3.106;2022-08-14T06:38:15;3.38;;;3.08;;
17917;SDS011;9084;50.956;3.106;2022-08-14T06:40:47;3.45;;;2.92;;
17917;SDS011;9084;50.956;3.106;2022-08-14T06:43:14;2.67;;;2.47;;
17917;SDS011;9084;50.956;3.106;2022-08-14T06:45:41;3.10;;;2.45;;
17917;SDS011;9084;50.956;3.106;2022-08-14T06:50:41;2.70;;;2.50;;
17917;SDS011;9084;50.956;3.106;2022-08-14T06:53:10;4.40;;;2.88;;
17917;SDS011;9084;50.956;3.106;2022-08-14T06:55:41;4.18;;;2.78;;
17917;SDS011;9084;50.956;3.106;2022-08-14T06:58:14;3.72;;;2.63;;
17917;SDS011;9084;50.956;3.106;2022-08-14T07:00:41;2.60;;;2.40;;
17917;SDS011;9084;50.956;3.106;2022-08-14T07:03:29;3.42;;;2.50;;
17917;SDS011;9084;50.956;3.106;2022-08-14T07:06:15;4.90;;;2.47;;
17917;SDS011;9084;50.956;3.106;2022-08-14T07:08:41;2.60;;;2.38;;
17917;SDS011;9084;50.956;3.106;2022-08-14T07:11:08;3.75;;;2.38;;
17917;SDS011;9084;50.956;3.106;2022-08-14T07:13:34;3.35;;;2.17;;
17917;SDS011;9084;50.956;3.106;2022-08-14T07:16:00;2.33;;;2.13;;
17917;SDS011;9084;50.956;3.106;2022-08-14T07:18:29;3.70;;;2.10;;
17917;SDS011;9084;50.956;3.106;2022-08-14T07:20:56;2.63;;;1.70;;
17917;SDS011;9084;50.956;3.106;2022-08-14T07:23:24;4.88;;;1.98;;
17917;SDS011;9084;50.956;3.106;2022-08-14T07:25:51;7.45;;;6.47;;
17917;SDS011;9084;50.956;3.106;2022-08-14T07:28:20;4.75;;;3.97;;
17917;SDS011;9084;50.956;3.106;2022-08-14T07:30:50;3.70;;;3.40;;
17917;SDS011;9084;50.956;3.106;2022-08-14T07:33:22;4.07;;;3.67;;
17917;SDS011;9084;50.956;3.106;2022-08-14T07:35:52;4.47;;;4.10;;
17917;SDS011;9084;50.956;3.106;2022-08-14T07:38:20;3.30;;;3.00;;
17917;SDS011;9084;50.956;3.106;2022-08-14T07:40:48;4.38;;;4.00;;
17917;SDS011;9084;50.956;3.106;2022-08-14T07:43:17;4.43;;;4.03;;
17917;SDS011;9084;50.956;3.106;2022-08-14T07:45:43;3.10;;;2.90;;
17917;SDS011;9084;50.956;3.106;2022-08-14T07:48:08;3.10;;;2.80;;
17917;SDS011;9084;50.956;3.106;2022-08-14T07:50:35;5.15;;;4.05;;
17917;SDS011;9084;50.956;3.106;2022-08-14T07:53:01;4.63;;;3.85;;
17917;SDS011;9084;50.956;3.106;2022-08-14T07:55:27;7.57;;;4.38;;
17917;SDS011;9084;50.956;3.106;2022-08-14T07:57:55;3.83;;;3.50;;
17917;SDS011;9084;50.956;3.106;2022-08-14T08:00:22;5.47;;;3.17;;
17917;SDS011;9084;50.956;3.106;2022-08-14T08:02:50;4.60;;;4.10;;
17917;SDS011;9084;50.956;3.106;2022-08-14T08:05:17;6.07;;;3.40;;
17917;SDS011;9084;50.956;3.106;2022-08-14T08:07:46;3.20;;;3.00;;
17917;SDS011;9084;50.956;3.106;2022-08-14T08:10:20;5.25;;;4.00;;
17917;SDS011;9084;50.956;3.106;2022-08-14T08:15:29;3.03;;;2.83;;
17917;SDS011;9084;50.956;3.106;2022-08-14T08:17:58;3.63;;;2.40;;
17917;SDS011;9084;50.956;3.106;2022-08-14T08:20:27;3.83;;;2.35;;
17917;SDS011;9084;50.956;3.106;2022-08-14T08:22:55;3.72;;;2.75;;
17917;SDS011;9084;50.956;3.106;2022-08-14T08:25:26;3.38;;;2.72;;
17917;SDS011;9084;50.956;3.106;2022-08-14T08:30:29;5.20;;;2.50;;
17917;SDS011;9084;50.956;3.106;2022-08-14T08:32:56;2.47;;;2.28;;
17917;SDS011;9084;50.956;3.106;2022-08-14T08:35:27;4.07;;;2.50;;
17917;SDS011;9084;50.956;3.106;2022-08-14T08:37:59;6.97;;;2.90;;
17917;SDS011;9084;50.956;3.106;2022-08-14T08:40:37;2.47;;;2.15;;
17917;SDS011;9084;50.956;3.106;2022-08-14T08:43:19;2.72;;;2.53;;
17917;SDS011;9084;50.956;3.106;2022-08-14T08:48:45;2.97;;;2.20;;
17917;SDS011;9084;50.956;3.106;2022-08-14T08:51:22;2.42;;;2.22;;
17917;SDS011;9084;50.956;3.106;2022-08-14T08:54:07;4.18;;;2.50;;
17917;SDS011;9084;50.956;3.106;2022-08-14T08:56:42;4.00;;;2.40;;
17917;SDS011;9084;50.956;3.106;2022-08-14T08:59:19;4.30;;;2.65;;
17917;SDS011;9084;50.956;3.106;2022-08-14T09:04:44;6.05;;;2.85;;
17917;SDS011;9084;50.956;3.106;2022-08-14T09:07:10;3.80;;;2.05;;
17917;SDS011;9084;50.956;3.106;2022-08-14T09:09:38;4.28;;;2.28;;
17917;SDS011;9084;50.956;3.106;2022-08-14T09:12:15;2.55;;;2.03;;
17917;SDS011;9084;50.956;3.106;2022-08-14T09:14:45;4.10;;;2.10;;
17917;SDS011;9084;50.956;3.106;2022-08-14T09:17:17;4.47;;;2.22;;
17917;SDS011;9084;50.956;3.106;2022-08-14T09:19:43;1.95;;;1.85;;
17917;SDS011;9084;50.956;3.106;2022-08-14T09:22:10;2.47;;;2.00;;
17917;SDS011;9084;50.956;3.106;2022-08-14T09:24:39;15.27;;;3.70;;
17917;SDS011;9084;50.956;3.106;2022-08-14T09:27:05;4.60;;;2.47;;
17917;SDS011;9084;50.956;3.106;2022-08-14T09:29:34;4.90;;;2.40;;
17917;SDS011;9084;50.956;3.106;2022-08-14T09:31:59;4.70;;;1.90;;
17917;SDS011;9084;50.956;3.106;2022-08-14T09:34:51;2.53;;;2.10;;
17917;SDS011;9084;50.956;3.106;2022-08-14T09:43:23;6.10;;;1.95;;
17917;SDS011;9084;50.956;3.106;2022-08-14T09:46:05;16.40;;;3.72;;
17917;SDS011;9084;50.956;3.106;2022-08-14T09:48:31;6.18;;;2.50;;
17917;SDS011;9084;50.956;3.106;2022-08-14T09:51:00;8.75;;;2.67;;
17917;SDS011;9084;50.956;3.106;2022-08-14T09:53:40;6.95;;;2.30;;
17917;SDS011;9084;50.956;3.106;2022-08-14T09:56:25;3.65;;;2.00;;
17917;SDS011;9084;50.956;3.106;2022-08-14T09:58:51;4.47;;;2.42;;
17917;SDS011;9084;50.956;3.106;2022-08-14T10:01:18;2.22;;;1.88;;
17917;SDS011;9084;50.956;3.106;2022-08-14T10:03:52;3.50;;;2.00;;
17917;SDS011;9084;50.956;3.106;2022-08-14T10:06:24;3.67;;;1.92;;
17917;SDS011;9084;50.956;3.106;2022-08-14T10:11:21;3.25;;;1.85;;
17917;SDS011;9084;50.956;3.106;2022-08-14T10:13:53;3.95;;;1.40;;
17917;SDS011;9084;50.956;3.106;2022-08-14T10:16:25;1.67;;;1.58;;
17917;SDS011;9084;50.956;3.106;2022-08-14T10:21:30;2.80;;;1.55;;
17917;SDS011;9084;50.956;3.106;2022-08-14T10:23:56;2.17;;;1.60;;
17917;SDS011;9084;50.956;3.106;2022-08-14T10:26:25;2.60;;;1.73;;
17917;SDS011;9084;50.956;3.106;2022-08-14T10:28:53;1.83;;;1.30;;
17917;SDS011;9084;50.956;3.106;2022-08-14T10:31:31;3.58;;;1.92;;
17917;SDS011;9084;50.956;3.106;2022-08-14T10:34:02;1.50;;;1.40;;
17917;SDS011;9084;50.956;3.106;2022-08-14T10:36:33;2.58;;;1.70;;
17917;SDS011;9084;50.956;3.106;2022-08-14T10:39:02;8.60;;;1.58;;
17917;SDS011;9084;50.956;3.106;2022-08-14T10:41:40;2.97;;;1.40;;
17917;SDS011;9084;50.956;3.106;2022-08-14T10:49:21;1.67;;;1.58;;
17917;SDS011;9084;50.956;3.106;2022-08-14T10:57:16;6.32;;;2.05;;
17917;SDS011;9084;50.956;3.106;2022-08-14T10:59:48;2.97;;;1.33;;
17917;SDS011;9084;50.956;3.106;2022-08-14T11:02:37;2.50;;;1.50;;
17917;SDS011;9084;50.956;3.106;2022-08-14T11:05:06;2.22;;;1.20;;
17917;SDS011;9084;50.956;3.106;2022-08-14T11:10:42;2.95;;;1.55;;
17917;SDS011;9084;50.956;3.106;2022-08-14T11:13:20;1.92;;;1.10;;
17917;SDS011;9084;50.956;3.106;2022-08-14T11:15:51;2.28;;;1.33;;
17917;SDS011;9084;50.956;3.106;2022-08-14T11:18:20;3.00;;;1.40;;
17917;SDS011;9084;50.956;3.106;2022-08-14T11:20:50;1.55;;;1.45;;
17917;SDS011;9084;50.956;3.106;2022-08-14T11:23:21;1.85;;;1.55;;
17917;SDS011;9084;50.956;3.106;2022-08-14T11:26:00;3.35;;;1.50;;
17917;SDS011;9084;50.956;3.106;2022-08-14T11:28:36;2.10;;;1.20;;
17917;SDS011;9084;50.956;3.106;2022-08-14T11:31:04;1.50;;;1.40;;
17917;SDS011;9084;50.956;3.106;2022-08-14T11:33:32;4.60;;;1.48;;
17917;SDS011;9084;50.956;3.106;2022-08-14T11:36:00;1.42;;;1.33;;
17917;SDS011;9084;50.956;3.106;2022-08-14T11:38:40;1.88;;;1.50;;
17917;SDS011;9084;50.956;3.106;2022-08-14T11:41:07;3.05;;;1.40;;
17917;SDS011;9084;50.956;3.106;2022-08-14T11:43:38;1.42;;;1.33;;
17917;SDS011;9084;50.956;3.106;2022-08-14T11:46:12;1.52;;;1.27;;
17917;SDS011;9084;50.956;3.106;2022-08-14T11:48:51;1.80;;;1.30;;
17917;SDS011;9084;50.956;3.106;2022-08-14T11:51:24;3.42;;;1.35;;
17917;SDS011;9084;50.956;3.106;2022-08-14T11:54:03;1.75;;;1.05;;
17917;SDS011;9084;50.956;3.106;2022-08-14T11:56:37;1.85;;;1.02;;
17917;SDS011;9084;50.956;3.106;2022-08-14T11:59:06;3.80;;;1.17;;
17917;SDS011;9084;50.956;3.106;2022-08-14T12:01:38;4.93;;;1.40;;
17917;SDS011;9084;50.956;3.106;2022-08-14T12:04:09;4.47;;;1.48;;
17917;SDS011;9084;50.956;3.106;2022-08-14T12:06:48;2.17;;;0.98;;
17917;SDS011;9084;50.956;3.106;2022-08-14T12:09:32;4.25;;;1.00;;
17917;SDS011;9084;50.956;3.106;2022-08-14T12:12:01;2.65;;;1.23;;
17917;SDS011;9084;50.956;3.106;2022-08-14T12:15:01;9.20;;;1.20;;
17917;SDS011;9084;50.956;3.106;2022-08-14T12:17:29;1.20;;;1.10;;
17917;SDS011;9084;50.956;3.106;2022-08-14T12:20:07;2.25;;;1.20;;
17917;SDS011;9084;50.956;3.106;2022-08-14T12:22:35;1.77;;;1.13;;
17917;SDS011;9084;50.956;3.106;2022-08-14T12:25:08;3.67;;;2.25;;
17917;SDS011;9084;50.956;3.106;2022-08-14T12:27:40;1.98;;;1.38;;
17917;SDS011;9084;50.956;3.106;2022-08-14T12:30:26;2.35;;;1.23;;
17917;SDS011;9084;50.956;3.106;2022-08-14T12:32:56;1.02;;;1.00;;
17917;SDS011;9084;50.956;3.106;2022-08-14T12:35:34;1.17;;;1.10;;
17917;SDS011;9084;50.956;3.106;2022-08-14T12:38:04;2.20;;;1.20;;
17917;SDS011;9084;50.956;3.106;2022-08-14T12:40:30;4.85;;;1.25;;
17917;SDS011;9084;50.956;3.106;2022-08-14T12:43:02;6.88;;;1.20;;
17917;SDS011;9084;50.956;3.106;2022-08-14T12:45:33;3.00;;;1.20;;
17917;SDS011;9084;50.956;3.106;2022-08-14T12:48:00;3.83;;;1.60;;
17917;SDS011;9084;50.956;3.106;2022-08-14T12:50:39;2.67;;;1.13;;
17917;SDS011;9084;50.956;3.106;2022-08-14T12:53:06;5.70;;;2.28;;
17917;SDS011;9084;50.956;3.106;2022-08-14T12:55:35;1.70;;;1.55;;
17917;SDS011;9084;50.956;3.106;2022-08-14T12:58:02;1.70;;;1.60;;
17917;SDS011;9084;50.956;3.106;2022-08-14T13:00:34;1.65;;;1.15;;
17917;SDS011;9084;50.956;3.106;2022-08-14T13:03:05;1.30;;;1.10;;
17917;SDS011;9084;50.956;3.106;2022-08-14T13:05:32;5.72;;;1.50;;
17917;SDS011;9084;50.956;3.106;2022-08-14T13:08:04;1.70;;;1.42;;
17917;SDS011;9084;50.956;3.106;2022-08-14T13:10:33;3.53;;;1.13;;
17917;SDS011;9084;50.956;3.106;2022-08-14T13:12:59;3.10;;;1.40;;
17917;SDS011;9084;50.956;3.106;2022-08-14T13:15:26;1.98;;;1.23;;
17917;SDS011;9084;50.956;3.106;2022-08-14T13:17:52;2.45;;;1.40;;
17917;SDS011;9084;50.956;3.106;2022-08-14T13:20:26;1.92;;;1.50;;
17917;SDS011;9084;50.956;3.106;2022-08-14T13:22:53;1.30;;;1.20;;
17917;SDS011;9084;50.956;3.106;2022-08-14T13:25:23;1.83;;;1.40;;
17917;SDS011;9084;50.956;3.106;2022-08-14T13:27:54;1.52;;;1.42;;
17917;SDS011;9084;50.956;3.106;2022-08-14T13:30:22;2.30;;;1.45;;
17917;SDS011;9084;50.956;3.106;2022-08-14T13:32:54;4.95;;;1.60;;
17917;SDS011;9084;50.956;3.106;2022-08-14T13:35:22;1.33;;;1.23;;
17917;SDS011;9084;50.956;3.106;2022-08-14T13:37:49;3.30;;;1.30;;
17917;SDS011;9084;50.956;3.106;2022-08-14T13:40:18;2.78;;;1.20;;
17917;SDS011;9084;50.956;3.106;2022-08-14T13:42:47;2.22;;;1.30;;
17917;SDS011;9084;50.956;3.106;2022-08-14T13:45:15;4.15;;;1.30;;
17917;SDS011;9084;50.956;3.106;2022-08-14T13:47:44;1.98;;;1.10;;
17917;SDS011;9084;50.956;3.106;2022-08-14T13:50:11;1.45;;;1.27;;
17917;SDS011;9084;50.956;3.106;2022-08-14T13:52:46;1.65;;;1.17;;
17917;SDS011;9084;50.956;3.106;2022-08-14T13:55:19;1.33;;;1.23;;
17917;SDS011;9084;50.956;3.106;2022-08-14T13:57:47;2.45;;;1.20;;
17917;SDS011;9084;50.956;3.106;2022-08-14T14:00:13;2.38;;;1.17;;
17917;SDS011;9084;50.956;3.106;2022-08-14T14:02:40;1.63;;;1.02;;
17917;SDS011;9084;50.956;3.106;2022-08-14T14:05:08;2.17;;;1.10;;
17917;SDS011;9084;50.956;3.106;2022-08-14T14:07:36;1.38;;;1.17;;
17917;SDS011;9084;50.956;3.106;2022-08-14T14:10:05;0.93;;;0.90;;
17917;SDS011;9084;50.956;3.106;2022-08-14T14:12:35;1.98;;;1.27;;
17917;SDS011;9084;50.956;3.106;2022-08-14T14:15:04;1.10;;;0.95;;
17917;SDS011;9084;50.956;3.106;2022-08-14T14:17:36;2.00;;;1.17;;
17917;SDS011;9084;50.956;3.106;2022-08-14T14:20:07;1.20;;;1.10;;
17917;SDS011;9084;50.956;3.106;2022-08-14T14:22:40;1.88;;;1.20;;
17917;SDS011;9084;50.956;3.106;2022-08-14T14:25:08;2.72;;;1.00;;
17917;SDS011;9084;50.956;3.106;2022-08-14T14:27:40;0.88;;;0.88;;
17917;SDS011;9084;50.956;3.106;2022-08-14T14:30:09;1.15;;;0.70;;
17917;SDS011;9084;50.956;3.106;2022-08-14T14:32:37;3.92;;;0.98;;
17917;SDS011;9084;50.956;3.106;2022-08-14T14:35:08;1.08;;;1.00;;
17917;SDS011;9084;50.956;3.106;2022-08-14T14:37:40;0.80;;;0.80;;
17917;SDS011;9084;50.956;3.106;2022-08-14T14:40:10;1.13;;;1.02;;
17917;SDS011;9084;50.956;3.106;2022-08-14T14:42:40;1.13;;;1.00;;
17917;SDS011;9084;50.956;3.106;2022-08-14T14:45:13;1.42;;;0.80;;
17917;SDS011;9084;50.956;3.106;2022-08-14T14:47:46;3.25;;;0.90;;
17917;SDS011;9084;50.956;3.106;2022-08-14T14:50:17;1.50;;;1.10;;
17917;SDS011;9084;50.956;3.106;2022-08-14T14:52:44;2.03;;;0.88;;
17917;SDS011;9084;50.956;3.106;2022-08-14T14:55:15;0.75;;;0.73;;
17917;SDS011;9084;50.956;3.106;2022-08-14T14:57:45;1.00;;;0.90;;
17917;SDS011;9084;50.956;3.106;2022-08-14T15:00:15;3.97;;;1.08;;
17917;SDS011;9084;50.956;3.106;2022-08-14T15:02:43;1.13;;;1.10;;
17917;SDS011;9084;50.956;3.106;2022-08-14T15:05:16;1.23;;;0.90;;
17917;SDS011;9084;50.956;3.106;2022-08-14T15:07:42;2.75;;;0.88;;
17917;SDS011;9084;50.956;3.106;2022-08-14T15:10:11;0.85;;;0.85;;
17917;SDS011;9084;50.956;3.106;2022-08-14T15:12:40;0.90;;;0.90;;
17917;SDS011;9084;50.956;3.106;2022-08-14T15:15:08;1.45;;;1.08;;
17917;SDS011;9084;50.956;3.106;2022-08-14T15:17:37;1.77;;;1.10;;
17917;SDS011;9084;50.956;3.106;2022-08-14T15:20:04;1.45;;;1.00;;
17917;SDS011;9084;50.956;3.106;2022-08-14T15:22:33;1.95;;;0.90;;
17917;SDS011;9084;50.956;3.106;2022-08-14T15:25:00;1.90;;;0.90;;
17917;SDS011;9084;50.956;3.106;2022-08-14T15:27:26;1.73;;;1.20;;
17917;SDS011;9084;50.956;3.106;2022-08-14T15:29:53;1.30;;;1.20;;
17917;SDS011;9084;50.956;3.106;2022-08-14T15:32:19;1.63;;;1.30;;
17917;SDS011;9084;50.956;3.106;2022-08-14T15:34:52;4.40;;;1.20;;
17917;SDS011;9084;50.956;3.106;2022-08-14T15:37:18;2.33;;;1.20;;
17917;SDS011;9084;50.956;3.106;2022-08-14T15:39:46;2.67;;;1.20;;
17917;SDS011;9084;50.956;3.106;2022-08-14T15:42:13;1.40;;;1.30;;
17917;SDS011;9084;50.956;3.106;2022-08-14T15:44:40;1.33;;;1.20;;
17917;SDS011;9084;50.956;3.106;2022-08-14T15:47:08;3.58;;;1.13;;
17917;SDS011;9084;50.956;3.106;2022-08-14T15:49:34;1.77;;;1.15;;
17917;SDS011;9084;50.956;3.106;2022-08-14T15:52:01;3.38;;;1.40;;
17917;SDS011;9084;50.956;3.106;2022-08-14T15:54:28;3.15;;;1.20;;